sensor_id;sensor_type;location;lat;lon;timestamp;temperature;humidity
9383;DHT22;4731;49.708;10.816;2022-09-03T00:00:50;13.70;99.90
9383;DHT22;4731;49.708;10.816;2022-09-03T00:03:21;13.70;99.90
9383;DHT22;4731;49.708;10.816;2022-09-03T00:05:54;14.00;99.90
9383;DHT22;4731;49.708;10.816;2022-09-03T00:08:27;13.60;99.90
9383;DHT22;4731;49.708;10.816;2022-09-03T00:11:00;13.60;99.90
9383;DHT22;4731;49.708;10.816;2022-09-03T00:13:32;13.60;99.90
9383;DHT22;4731;49.708;10.816;2022-09-03T00:16:02;13.50;99.90
9383;DHT22;4731;49.708;10.816;2022-09-03T00:18:40;13.40;99.90
9383;DHT22;4731;49.708;10.816;2022-09-03T00:21:12;13.40;99.90
9383;DHT22;4731;49.708;10.816;2022-09-03T00:23:43;13.40;99.90
9383;DHT22;4731;49.708;10.816;2022-09-03T00:26:19;13.30;99.90
9383;DHT22;4731;49.708;10.816;2022-09-03T00:28:53;13.30;99.90
9383;DHT22;4731;49.708;10.816;2022-09-03T00:31:27;14.60;99.90
9383;DHT22;4731;49.708;10.816;2022-09-03T00:33:59;13.20;99.90
9383;DHT22;4731;49.708;10.816;2022-09-03T00:36:34;13.10;99.90
9383;DHT22;4731;49.708;10.816;2022-09-03T00:39:08;14.40;99.90
9383;DHT22;4731;49.708;10.816;2022-09-03T00:41:37;15.20;99.90
9383;DHT22;4731;49.708;10.816;2022-09-03T00:44:25;12.90;99.90
9383;DHT22;4731;49.708;10.816;2022-09-03T00:46:59;12.90;99.90
9383;DHT22;4731;49.708;10.816;2022-09-03T00:49:36;12.90;99.90
9383;DHT22;4731;49.708;10.816;2022-09-03T00:52:14;14.40;99.90
9383;DHT22;4731;49.708;10.816;2022-09-03T00:54:48;12.70;99.90
9383;DHT22;4731;49.708;10.816;2022-09-03T00:57:34;12.70;99.90
9383;DHT22;4731;49.708;10.816;2022-09-03T01:00:07;12.70;99.90
9383;DHT22;4731;49.708;10.816;2022-09-03T01:02:40;12.60;99.90
9383;DHT22;4731;49.708;10.816;2022-09-03T01:05:22;12.50;99.90
9383;DHT22;4731;49.708;10.816;2022-09-03T01:08:02;12.60;99.90
9383;DHT22;4731;49.708;10.816;2022-09-03T01:10:37;14.20;99.90
9383;DHT22;4731;49.708;10.816;2022-09-03T01:13:12;12.40;99.90
9383;DHT22;4731;49.708;10.816;2022-09-03T01:15:44;12.30;99.90
9383;DHT22;4731;49.708;10.816;2022-09-03T01:18:19;13.10;99.90
9383;DHT22;4731;49.708;10.816;2022-09-03T01:20:54;12.20;99.90
9383;DHT22;4731;49.708;10.816;2022-09-03T01:23:47;12.20;99.90
9383;DHT22;4731;49.708;10.816;2022-09-03T01:26:41;12.10;99.90
9383;DHT22;4731;49.708;10.816;2022-09-03T01:29:18;12.00;99.90
9383;DHT22;4731;49.708;10.816;2022-09-03T01:32:04;12.00;99.90
9383;DHT22;4731;49.708;10.816;2022-09-03T01:34:42;11.90;99.90
9383;DHT22;4731;49.708;10.816;2022-09-03T01:37:17;11.90;99.90
9383;DHT22;4731;49.708;10.816;2022-09-03T01:39:57;11.90;99.90
9383;DHT22;4731;49.708;10.816;2022-09-03T01:42:32;11.90;99.90
9383;DHT22;4731;49.708;10.816;2022-09-03T01:45:16;11.80;99.90
9383;DHT22;4731;49.708;10.816;2022-09-03T01:48:01;11.90;99.90
9383;DHT22;4731;49.708;10.816;2022-09-03T01:50:41;13.40;99.90
9383;DHT22;4731;49.708;10.816;2022-09-03T01:53:18;11.80;99.90
9383;DHT22;4731;49.708;10.816;2022-09-03T01:56:01;11.80;99.90
9383;DHT22;4731;49.708;10.816;2022-09-03T01:58:36;11.70;99.90
9383;DHT22;4731;49.708;10.816;2022-09-03T02:01:13;11.70;99.90
9383;DHT22;4731;49.708;10.816;2022-09-03T02:03:43;11.70;99.90
9383;DHT22;4731;49.708;10.816;2022-09-03T02:06:11;11.70;99.90
9383;DHT22;4731;49.708;10.816;2022-09-03T02:08:38;11.70;99.90
9383;DHT22;4731;49.708;10.816;2022-09-03T02:11:08;11.60;99.90
9383;DHT22;4731;49.708;10.816;2022-09-03T02:13:37;11.60;99.90
9383;DHT22;4731;49.708;10.816;2022-09-03T02:16:11;11.60;99.90
9383;DHT22;4731;49.708;10.816;2022-09-03T02:18:42;11.60;99.90
9383;DHT22;4731;49.708;10.816;2022-09-03T02:21:11;11.60;99.90
9383;DHT22;4731;49.708;10.816;2022-09-03T02:23:39;11.50;99.90
9383;DHT22;4731;49.708;10.816;2022-09-03T02:26:08;11.50;99.90
9383;DHT22;4731;49.708;10.816;2022-09-03T02:28:36;11.40;99.90
9383;DHT22;4731;49.708;10.816;2022-09-03T02:31:03;11.40;99.90
9383;DHT22;4731;49.708;10.816;2022-09-03T02:33:34;11.30;99.90
9383;DHT22;4731;49.708;10.816;2022-09-03T02:36:04;11.30;99.90
9383;DHT22;4731;49.708;10.816;2022-09-03T02:38:31;11.30;99.90
9383;DHT22;4731;49.708;10.816;2022-09-03T02:40:58;11.20;99.90
9383;DHT22;4731;49.708;10.816;2022-09-03T02:43:29;11.20;99.90
9383;DHT22;4731;49.708;10.816;2022-09-03T02:46:01;11.20;99.90
9383;DHT22;4731;49.708;10.816;2022-09-03T02:48:29;11.20;99.90
9383;DHT22;4731;49.708;10.816;2022-09-03T02:50:57;14.10;99.90
9383;DHT22;4731;49.708;10.816;2022-09-03T02:53:23;11.10;99.90
9383;DHT22;4731;49.708;10.816;2022-09-03T02:55:56;11.00;99.90
9383;DHT22;4731;49.708;10.816;2022-09-03T02:58:22;11.00;99.90
9383;DHT22;4731;49.708;10.816;2022-09-03T03:00:50;11.00;99.90
9383;DHT22;4731;49.708;10.816;2022-09-03T03:03:17;11.00;99.90
9383;DHT22;4731;49.708;10.816;2022-09-03T03:05:45;11.00;99.90
9383;DHT22;4731;49.708;10.816;2022-09-03T03:08:16;11.00;99.90
9383;DHT22;4731;49.708;10.816;2022-09-03T03:10:46;11.00;99.90
9383;DHT22;4731;49.708;10.816;2022-09-03T03:13:14;10.90;99.90
9383;DHT22;4731;49.708;10.816;2022-09-03T03:15:41;11.00;99.90
9383;DHT22;4731;49.708;10.816;2022-09-03T03:18:09;10.90;99.90
9383;DHT22;4731;49.708;10.816;2022-09-03T03:20:36;11.00;99.90
9383;DHT22;4731;49.708;10.816;2022-09-03T03:23:03;13.70;99.90
9383;DHT22;4731;49.708;10.816;2022-09-03T03:25:32;10.90;99.90
9383;DHT22;4731;49.708;10.816;2022-09-03T03:28:00;10.90;99.90
9383;DHT22;4731;49.708;10.816;2022-09-03T03:30:27;10.90;99.90
9383;DHT22;4731;49.708;10.816;2022-09-03T03:32:55;10.90;99.90
9383;DHT22;4731;49.708;10.816;2022-09-03T03:35:21;10.80;99.90
9383;DHT22;4731;49.708;10.816;2022-09-03T03:37:48;10.80;99.90
9383;DHT22;4731;49.708;10.816;2022-09-03T03:40:15;10.80;99.90
9383;DHT22;4731;49.708;10.816;2022-09-03T03:42:43;10.70;99.90
9383;DHT22;4731;49.708;10.816;2022-09-03T03:45:10;10.70;99.90
9383;DHT22;4731;49.708;10.816;2022-09-03T03:47:37;10.70;99.90
9383;DHT22;4731;49.708;10.816;2022-09-03T03:50:04;10.70;99.90
9383;DHT22;4731;49.708;10.816;2022-09-03T03:52:31;10.70;99.90
9383;DHT22;4731;49.708;10.816;2022-09-03T03:54:58;10.70;99.90
9383;DHT22;4731;49.708;10.816;2022-09-03T03:57:26;10.60;99.90
9383;DHT22;4731;49.708;10.816;2022-09-03T03:59:56;10.60;99.90
9383;DHT22;4731;49.708;10.816;2022-09-03T04:02:23;10.50;99.90
9383;DHT22;4731;49.708;10.816;2022-09-03T04:04:49;10.50;99.90
9383;DHT22;4731;49.708;10.816;2022-09-03T04:07:16;10.40;99.90
9383;DHT22;4731;49.708;10.816;2022-09-03T04:09:44;13.20;99.90
9383;DHT22;4731;49.708;10.816;2022-09-03T04:12:11;10.40;99.90
9383;DHT22;4731;49.708;10.816;2022-09-03T04:14:38;10.40;99.90
9383;DHT22;4731;49.708;10.816;2022-09-03T04:17:07;10.30;99.90
9383;DHT22;4731;49.708;10.816;2022-09-03T04:19:34;10.30;99.90
9383;DHT22;4731;49.708;10.816;2022-09-03T04:22:02;10.30;99.90
9383;DHT22;4731;49.708;10.816;2022-09-03T04:24:29;11.70;99.90
9383;DHT22;4731;49.708;10.816;2022-09-03T04:26:56;10.30;99.90
9383;DHT22;4731;49.708;10.816;2022-09-03T04:29:23;10.30;99.90
9383;DHT22;4731;49.708;10.816;2022-09-03T04:31:50;10.30;99.90
9383;DHT22;4731;49.708;10.816;2022-09-03T04:34:35;10.30;99.90
9383;DHT22;4731;49.708;10.816;2022-09-03T04:37:02;10.30;99.90
9383;DHT22;4731;49.708;10.816;2022-09-03T04:39:28;10.30;99.90
9383;DHT22;4731;49.708;10.816;2022-09-03T04:41:55;10.40;99.90
9383;DHT22;4731;49.708;10.816;2022-09-03T04:44:22;10.50;99.90
9383;DHT22;4731;49.708;10.816;2022-09-03T04:46:48;10.40;99.90
9383;DHT22;4731;49.708;10.816;2022-09-03T04:49:15;10.50;99.90
9383;DHT22;4731;49.708;10.816;2022-09-03T04:51:43;10.50;99.90
9383;DHT22;4731;49.708;10.816;2022-09-03T04:54:10;10.60;99.90
9383;DHT22;4731;49.708;10.816;2022-09-03T04:56:37;10.70;99.90
9383;DHT22;4731;49.708;10.816;2022-09-03T04:59:06;10.70;99.90
9383;DHT22;4731;49.708;10.816;2022-09-03T05:01:35;10.80;99.90
9383;DHT22;4731;49.708;10.816;2022-09-03T05:04:02;10.90;99.90
9383;DHT22;4731;49.708;10.816;2022-09-03T05:06:30;10.90;99.90
9383;DHT22;4731;49.708;10.816;2022-09-03T05:08:58;11.00;99.90
9383;DHT22;4731;49.708;10.816;2022-09-03T05:11:26;11.10;99.90
9383;DHT22;4731;49.708;10.816;2022-09-03T05:13:54;11.20;99.90
9383;DHT22;4731;49.708;10.816;2022-09-03T05:16:22;11.30;99.90
9383;DHT22;4731;49.708;10.816;2022-09-03T05:18:51;11.40;99.90
9383;DHT22;4731;49.708;10.816;2022-09-03T05:21:19;11.40;99.90
9383;DHT22;4731;49.708;10.816;2022-09-03T05:23:48;11.50;99.90
9383;DHT22;4731;49.708;10.816;2022-09-03T05:26:18;11.60;99.90
9383;DHT22;4731;49.708;10.816;2022-09-03T05:28:45;14.40;99.90
9383;DHT22;4731;49.708;10.816;2022-09-03T05:31:14;13.70;99.90
9383;DHT22;4731;49.708;10.816;2022-09-03T05:33:43;11.80;99.90
9383;DHT22;4731;49.708;10.816;2022-09-03T05:36:11;11.90;99.90
9383;DHT22;4731;49.708;10.816;2022-09-03T05:38:39;12.10;99.90
9383;DHT22;4731;49.708;10.816;2022-09-03T05:41:09;12.20;99.90
9383;DHT22;4731;49.708;10.816;2022-09-03T05:43:38;12.30;99.90
9383;DHT22;4731;49.708;10.816;2022-09-03T05:46:07;12.50;99.90
9383;DHT22;4731;49.708;10.816;2022-09-03T05:48:36;12.70;99.90
9383;DHT22;4731;49.708;10.816;2022-09-03T05:51:05;13.00;99.90
9383;DHT22;4731;49.708;10.816;2022-09-03T05:53:35;13.20;99.90
9383;DHT22;4731;49.708;10.816;2022-09-03T05:56:03;15.10;99.90
9383;DHT22;4731;49.708;10.816;2022-09-03T05:58:31;13.70;99.90
9383;DHT22;4731;49.708;10.816;2022-09-03T06:01:07;15.40;99.90
9383;DHT22;4731;49.708;10.816;2022-09-03T06:03:34;16.80;99.90
9383;DHT22;4731;49.708;10.816;2022-09-03T06:06:01;18.00;99.90
9383;DHT22;4731;49.708;10.816;2022-09-03T06:08:29;16.20;99.90
9383;DHT22;4731;49.708;10.816;2022-09-03T06:10:57;16.10;99.90
9383;DHT22;4731;49.708;10.816;2022-09-03T06:13:24;15.90;99.90
9383;DHT22;4731;49.708;10.816;2022-09-03T06:15:55;17.40;99.90
9383;DHT22;4731;49.708;10.816;2022-09-03T06:18:23;14.70;99.90
9383;DHT22;4731;49.708;10.816;2022-09-03T06:20:53;14.70;99.90
9383;DHT22;4731;49.708;10.816;2022-09-03T06:23:20;15.00;99.90
9383;DHT22;4731;49.708;10.816;2022-09-03T06:25:47;17.70;99.90
9383;DHT22;4731;49.708;10.816;2022-09-03T06:28:14;16.10;99.90
9383;DHT22;4731;49.708;10.816;2022-09-03T06:30:40;17.30;99.90
9383;DHT22;4731;49.708;10.816;2022-09-03T06:33:07;17.60;99.90
9383;DHT22;4731;49.708;10.816;2022-09-03T06:35:35;17.90;99.90
9383;DHT22;4731;49.708;10.816;2022-09-03T06:38:02;17.60;99.90
9383;DHT22;4731;49.708;10.816;2022-09-03T06:40:29;18.00;99.90
9383;DHT22;4731;49.708;10.816;2022-09-03T06:42:56;18.30;99.90
9383;DHT22;4731;49.708;10.816;2022-09-03T06:45:28;17.50;99.90
9383;DHT22;4731;49.708;10.816;2022-09-03T06:47:54;16.80;99.90
9383;DHT22;4731;49.708;10.816;2022-09-03T06:50:21;17.10;99.90
9383;DHT22;4731;49.708;10.816;2022-09-03T06:52:52;17.20;99.90
9383;DHT22;4731;49.708;10.816;2022-09-03T06:55:20;18.40;99.90
9383;DHT22;4731;49.708;10.816;2022-09-03T06:57:46;20.10;99.90
9383;DHT22;4731;49.708;10.816;2022-09-03T07:00:14;18.40;99.90
9383;DHT22;4731;49.708;10.816;2022-09-03T07:02:41;17.20;99.90
9383;DHT22;4731;49.708;10.816;2022-09-03T07:05:09;17.30;99.90
9383;DHT22;4731;49.708;10.816;2022-09-03T07:07:36;16.90;99.90
9383;DHT22;4731;49.708;10.816;2022-09-03T07:10:05;16.70;99.90
9383;DHT22;4731;49.708;10.816;2022-09-03T07:12:33;16.40;99.90
9383;DHT22;4731;49.708;10.816;2022-09-03T07:15:02;17.20;99.90
9383;DHT22;4731;49.708;10.816;2022-09-03T07:19:55;16.40;99.90
9383;DHT22;4731;49.708;10.816;2022-09-03T07:24:50;16.60;99.90
9383;DHT22;4731;49.708;10.816;2022-09-03T07:27:18;17.00;99.90
9383;DHT22;4731;49.708;10.816;2022-09-03T07:29:45;19.10;99.90
9383;DHT22;4731;49.708;10.816;2022-09-03T07:32:11;17.50;99.90
9383;DHT22;4731;49.708;10.816;2022-09-03T07:34:38;17.20;99.90
9383;DHT22;4731;49.708;10.816;2022-09-03T07:37:05;18.10;99.90
9383;DHT22;4731;49.708;10.816;2022-09-03T07:39:31;17.50;99.90
9383;DHT22;4731;49.708;10.816;2022-09-03T07:41:58;17.50;99.90
9383;DHT22;4731;49.708;10.816;2022-09-03T07:44:27;17.90;99.90
9383;DHT22;4731;49.708;10.816;2022-09-03T07:46:53;17.90;99.90
9383;DHT22;4731;49.708;10.816;2022-09-03T07:49:20;18.30;99.90
9383;DHT22;4731;49.708;10.816;2022-09-03T07:51:48;18.40;99.90
9383;DHT22;4731;49.708;10.816;2022-09-03T07:54:17;18.30;99.90
9383;DHT22;4731;49.708;10.816;2022-09-03T07:56:46;18.60;99.90
9383;DHT22;4731;49.708;10.816;2022-09-03T07:59:12;19.50;99.90
9383;DHT22;4731;49.708;10.816;2022-09-03T08:01:40;19.80;99.90
9383;DHT22;4731;49.708;10.816;2022-09-03T08:04:07;20.80;99.90
9383;DHT22;4731;49.708;10.816;2022-09-03T08:06:38;21.70;99.90
9383;DHT22;4731;49.708;10.816;2022-09-03T08:09:07;21.70;99.90
9383;DHT22;4731;49.708;10.816;2022-09-03T08:11:36;21.70;99.90
9383;DHT22;4731;49.708;10.816;2022-09-03T08:14:05;21.00;99.90
9383;DHT22;4731;49.708;10.816;2022-09-03T08:16:34;21.80;99.90
9383;DHT22;4731;49.708;10.816;2022-09-03T08:19:02;22.30;99.90
9383;DHT22;4731;49.708;10.816;2022-09-03T08:21:30;23.10;99.90
9383;DHT22;4731;49.708;10.816;2022-09-03T08:23:57;24.40;99.90
9383;DHT22;4731;49.708;10.816;2022-09-03T08:26:27;24.60;99.90
9383;DHT22;4731;49.708;10.816;2022-09-03T08:28:54;23.70;99.90
9383;DHT22;4731;49.708;10.816;2022-09-03T08:31:22;22.30;99.90
9383;DHT22;4731;49.708;10.816;2022-09-03T08:33:52;20.80;99.90
9383;DHT22;4731;49.708;10.816;2022-09-03T08:36:21;20.60;99.90
9383;DHT22;4731;49.708;10.816;2022-09-03T08:38:50;20.60;99.90
9383;DHT22;4731;49.708;10.816;2022-09-03T08:41:23;21.20;99.90
9383;DHT22;4731;49.708;10.816;2022-09-03T08:44:05;21.70;99.90
9383;DHT22;4731;49.708;10.816;2022-09-03T08:46:43;22.00;99.90
9383;DHT22;4731;49.708;10.816;2022-09-03T08:49:16;19.90;99.90
9383;DHT22;4731;49.708;10.816;2022-09-03T08:51:46;19.90;99.90
9383;DHT22;4731;49.708;10.816;2022-09-03T08:54:15;21.70;99.90
9383;DHT22;4731;49.708;10.816;2022-09-03T08:56:43;20.10;99.90
9383;DHT22;4731;49.708;10.816;2022-09-03T08:59:12;20.90;99.90
9383;DHT22;4731;49.708;10.816;2022-09-03T09:01:49;22.70;99.90
9383;DHT22;4731;49.708;10.816;2022-09-03T09:04:27;22.90;99.90
9383;DHT22;4731;49.708;10.816;2022-09-03T09:07:05;24.60;99.90
9383;DHT22;4731;49.708;10.816;2022-09-03T09:09:43;25.80;99.90
9383;DHT22;4731;49.708;10.816;2022-09-03T09:12:21;25.50;99.90
9383;DHT22;4731;49.708;10.816;2022-09-03T09:14:55;28.30;99.90
9383;DHT22;4731;49.708;10.816;2022-09-03T09:17:57;27.30;99.90
9383;DHT22;4731;49.708;10.816;2022-09-03T09:20:33;27.60;99.90
9383;DHT22;4731;49.708;10.816;2022-09-03T09:23:05;26.60;99.90
9383;DHT22;4731;49.708;10.816;2022-09-03T09:25:33;26.30;99.90
9383;DHT22;4731;49.708;10.816;2022-09-03T09:28:12;25.60;99.90
9383;DHT22;4731;49.708;10.816;2022-09-03T09:30:41;25.80;99.90
9383;DHT22;4731;49.708;10.816;2022-09-03T09:33:08;28.00;99.90
9383;DHT22;4731;49.708;10.816;2022-09-03T09:35:36;27.10;99.90
9383;DHT22;4731;49.708;10.816;2022-09-03T09:38:08;27.10;99.90
9383;DHT22;4731;49.708;10.816;2022-09-03T09:40:36;28.20;99.90
9383;DHT22;4731;49.708;10.816;2022-09-03T09:43:08;27.40;99.90
9383;DHT22;4731;49.708;10.816;2022-09-03T09:45:37;27.60;99.90
9383;DHT22;4731;49.708;10.816;2022-09-03T09:48:10;29.50;99.90
9383;DHT22;4731;49.708;10.816;2022-09-03T09:50:38;30.10;99.80
9383;DHT22;4731;49.708;10.816;2022-09-03T09:53:09;30.90;97.00
9383;DHT22;4731;49.708;10.816;2022-09-03T09:55:51;29.40;97.20
9383;DHT22;4731;49.708;10.816;2022-09-03T09:58:19;28.80;97.00
9383;DHT22;4731;49.708;10.816;2022-09-03T10:00:55;29.10;98.90
9383;DHT22;4731;49.708;10.816;2022-09-03T10:03:23;31.90;94.90
9383;DHT22;4731;49.708;10.816;2022-09-03T10:05:59;29.00;96.00
9383;DHT22;4731;49.708;10.816;2022-09-03T10:08:48;28.50;96.40
9383;DHT22;4731;49.708;10.816;2022-09-03T10:11:16;28.60;96.70
9383;DHT22;4731;49.708;10.816;2022-09-03T10:13:45;28.90;96.50
9383;DHT22;4731;49.708;10.816;2022-09-03T10:16:21;29.40;96.10
9383;DHT22;4731;49.708;10.816;2022-09-03T10:18:52;30.20;95.80
9383;DHT22;4731;49.708;10.816;2022-09-03T10:21:26;29.90;94.20
9383;DHT22;4731;49.708;10.816;2022-09-03T10:24:00;29.80;94.90
9383;DHT22;4731;49.708;10.816;2022-09-03T10:26:29;28.40;95.80
9383;DHT22;4731;49.708;10.816;2022-09-03T10:28:59;27.80;96.40
9383;DHT22;4731;49.708;10.816;2022-09-03T10:31:37;27.60;97.80
9383;DHT22;4731;49.708;10.816;2022-09-03T10:34:13;28.70;97.10
9383;DHT22;4731;49.708;10.816;2022-09-03T10:36:49;30.10;94.50
9383;DHT22;4731;49.708;10.816;2022-09-03T10:39:28;30.10;94.30
9383;DHT22;4731;49.708;10.816;2022-09-03T10:42:10;28.00;95.80
9383;DHT22;4731;49.708;10.816;2022-09-03T10:44:57;27.00;97.30
9383;DHT22;4731;49.708;10.816;2022-09-03T10:47:43;25.70;99.90
9383;DHT22;4731;49.708;10.816;2022-09-03T10:50:17;25.20;99.90
9383;DHT22;4731;49.708;10.816;2022-09-03T10:53:00;24.60;99.90
9383;DHT22;4731;49.708;10.816;2022-09-03T10:55:39;26.10;99.90
9383;DHT22;4731;49.708;10.816;2022-09-03T10:58:16;27.10;99.90
9383;DHT22;4731;49.708;10.816;2022-09-03T11:00:52;27.90;99.10
9383;DHT22;4731;49.708;10.816;2022-09-03T11:03:39;26.50;99.20
9383;DHT22;4731;49.708;10.816;2022-09-03T11:06:12;25.80;99.90
9383;DHT22;4731;49.708;10.816;2022-09-03T11:08:45;26.00;99.90
9383;DHT22;4731;49.708;10.816;2022-09-03T11:11:18;26.80;99.90
9383;DHT22;4731;49.708;10.816;2022-09-03T11:13:49;27.50;99.90
9383;DHT22;4731;49.708;10.816;2022-09-03T11:16:21;27.80;99.90
9383;DHT22;4731;49.708;10.816;2022-09-03T11:18:54;26.40;99.90
9383;DHT22;4731;49.708;10.816;2022-09-03T11:21:25;27.40;99.90
9383;DHT22;4731;49.708;10.816;2022-09-03T11:24:03;27.70;99.90
9383;DHT22;4731;49.708;10.816;2022-09-03T11:26:33;27.40;99.80
9383;DHT22;4731;49.708;10.816;2022-09-03T11:29:05;26.10;99.90
9383;DHT22;4731;49.708;10.816;2022-09-03T11:31:44;25.50;99.90
9383;DHT22;4731;49.708;10.816;2022-09-03T11:34:14;25.30;99.90
9383;DHT22;4731;49.708;10.816;2022-09-03T11:36:41;25.50;99.90
9383;DHT22;4731;49.708;10.816;2022-09-03T11:39:19;25.40;99.90
9383;DHT22;4731;49.708;10.816;2022-09-03T11:42:00;24.40;99.90
9383;DHT22;4731;49.708;10.816;2022-09-03T11:44:36;24.80;99.90
9383;DHT22;4731;49.708;10.816;2022-09-03T11:47:14;24.60;99.90
9383;DHT22;4731;49.708;10.816;2022-09-03T11:49:46;25.80;99.90
9383;DHT22;4731;49.708;10.816;2022-09-03T11:52:24;25.70;99.90
9383;DHT22;4731;49.708;10.816;2022-09-03T11:54:51;26.00;99.90
9383;DHT22;4731;49.708;10.816;2022-09-03T11:57:25;25.50;99.90
9383;DHT22;4731;49.708;10.816;2022-09-03T11:59:52;25.40;99.90
9383;DHT22;4731;49.708;10.816;2022-09-03T12:02:25;24.70;99.90
9383;DHT22;4731;49.708;10.816;2022-09-03T12:05:04;24.60;99.90
9383;DHT22;4731;49.708;10.816;2022-09-03T12:08:00;24.60;99.90
9383;DHT22;4731;49.708;10.816;2022-09-03T12:10:37;24.40;99.90
9383;DHT22;4731;49.708;10.816;2022-09-03T12:13:21;24.80;99.90
9383;DHT22;4731;49.708;10.816;2022-09-03T12:18:47;23.80;99.90
9383;DHT22;4731;49.708;10.816;2022-09-03T12:21:17;23.90;99.90
9383;DHT22;4731;49.708;10.816;2022-09-03T12:23:46;24.40;99.90
9383;DHT22;4731;49.708;10.816;2022-09-03T12:26:15;23.90;99.90
9383;DHT22;4731;49.708;10.816;2022-09-03T12:28:45;24.40;99.90
9383;DHT22;4731;49.708;10.816;2022-09-03T12:31:17;24.60;99.90
9383;DHT22;4731;49.708;10.816;2022-09-03T12:33:51;25.20;99.90
9383;DHT22;4731;49.708;10.816;2022-09-03T12:36:20;24.80;99.90
9383;DHT22;4731;49.708;10.816;2022-09-03T12:38:47;25.20;99.90
9383;DHT22;4731;49.708;10.816;2022-09-03T12:41:22;24.90;99.90
9383;DHT22;4731;49.708;10.816;2022-09-03T12:43:53;24.20;99.90
9383;DHT22;4731;49.708;10.816;2022-09-03T12:46:25;24.20;99.90
9383;DHT22;4731;49.708;10.816;2022-09-03T12:48:56;24.20;99.90
9383;DHT22;4731;49.708;10.816;2022-09-03T12:51:31;24.60;99.90
9383;DHT22;4731;49.708;10.816;2022-09-03T12:53:58;24.70;99.90
9383;DHT22;4731;49.708;10.816;2022-09-03T12:56:26;24.90;99.90
9383;DHT22;4731;49.708;10.816;2022-09-03T12:58:59;24.80;99.90
9383;DHT22;4731;49.708;10.816;2022-09-03T13:01:29;24.80;99.90
9383;DHT22;4731;49.708;10.816;2022-09-03T13:04:02;24.70;99.90
9383;DHT22;4731;49.708;10.816;2022-09-03T13:06:39;24.50;99.90
9383;DHT22;4731;49.708;10.816;2022-09-03T13:09:07;24.40;99.90
9383;DHT22;4731;49.708;10.816;2022-09-03T13:11:35;24.60;99.90
9383;DHT22;4731;49.708;10.816;2022-09-03T13:14:05;24.60;99.90
9383;DHT22;4731;49.708;10.816;2022-09-03T13:16:51;24.80;99.90
9383;DHT22;4731;49.708;10.816;2022-09-03T13:19:32;24.40;99.90
9383;DHT22;4731;49.708;10.816;2022-09-03T13:22:08;24.60;99.90
9383;DHT22;4731;49.708;10.816;2022-09-03T13:24:53;25.30;99.90
9383;DHT22;4731;49.708;10.816;2022-09-03T13:27:30;25.70;99.90
9383;DHT22;4731;49.708;10.816;2022-09-03T13:30:06;26.60;99.90
9383;DHT22;4731;49.708;10.816;2022-09-03T13:32:51;27.20;99.90
9383;DHT22;4731;49.708;10.816;2022-09-03T13:35:28;25.50;99.90
9383;DHT22;4731;49.708;10.816;2022-09-03T13:38:03;25.90;99.90
9383;DHT22;4731;49.708;10.816;2022-09-03T13:40:35;26.20;99.90
9383;DHT22;4731;49.708;10.816;2022-09-03T13:43:14;25.70;99.90
9383;DHT22;4731;49.708;10.816;2022-09-03T13:45:53;26.30;99.90
9383;DHT22;4731;49.708;10.816;2022-09-03T13:48:26;26.20;99.90
9383;DHT22;4731;49.708;10.816;2022-09-03T13:51:18;25.20;99.90
9383;DHT22;4731;49.708;10.816;2022-09-03T13:53:55;25.30;99.90
9383;DHT22;4731;49.708;10.816;2022-09-03T13:56:31;24.60;99.90
9383;DHT22;4731;49.708;10.816;2022-09-03T13:59:04;24.10;99.90
9383;DHT22;4731;49.708;10.816;2022-09-03T14:01:44;24.00;99.90
9383;DHT22;4731;49.708;10.816;2022-09-03T14:04:20;23.70;99.90
9383;DHT22;4731;49.708;10.816;2022-09-03T14:06:53;23.90;99.90
9383;DHT22;4731;49.708;10.816;2022-09-03T14:09:29;23.90;99.90
9383;DHT22;4731;49.708;10.816;2022-09-03T14:12:04;23.80;99.90
9383;DHT22;4731;49.708;10.816;2022-09-03T14:14:40;23.70;99.90
9383;DHT22;4731;49.708;10.816;2022-09-03T14:17:14;23.60;99.90
9383;DHT22;4731;49.708;10.816;2022-09-03T14:19:47;23.90;99.90
9383;DHT22;4731;49.708;10.816;2022-09-03T14:22:17;23.70;99.90
9383;DHT22;4731;49.708;10.816;2022-09-03T14:24:50;23.60;99.90
9383;DHT22;4731;49.708;10.816;2022-09-03T14:27:25;23.60;99.90
9383;DHT22;4731;49.708;10.816;2022-09-03T14:29:57;23.90;99.90
9383;DHT22;4731;49.708;10.816;2022-09-03T14:32:43;24.00;99.90
9383;DHT22;4731;49.708;10.816;2022-09-03T14:38:31;24.10;99.90
9383;DHT22;4731;49.708;10.816;2022-09-03T14:41:05;24.00;99.90
9383;DHT22;4731;49.708;10.816;2022-09-03T14:44:08;23.60;99.90
9383;DHT22;4731;49.708;10.816;2022-09-03T14:46:51;23.70;99.90
9383;DHT22;4731;49.708;10.816;2022-09-03T14:49:48;23.60;99.90
9383;DHT22;4731;49.708;10.816;2022-09-03T14:52:35;23.80;99.90
9383;DHT22;4731;49.708;10.816;2022-09-03T14:55:28;23.90;99.90
9383;DHT22;4731;49.708;10.816;2022-09-03T14:58:16;23.80;99.90
9383;DHT22;4731;49.708;10.816;2022-09-03T15:00:51;23.80;99.90
9383;DHT22;4731;49.708;10.816;2022-09-03T15:06:24;23.80;99.90
9383;DHT22;4731;49.708;10.816;2022-09-03T15:09:08;24.60;99.90
9383;DHT22;4731;49.708;10.816;2022-09-03T15:11:47;23.90;99.90
9383;DHT22;4731;49.708;10.816;2022-09-03T15:14:18;23.70;99.90
9383;DHT22;4731;49.708;10.816;2022-09-03T15:16:52;23.60;99.90
9383;DHT22;4731;49.708;10.816;2022-09-03T15:22:32;23.40;99.90
9383;DHT22;4731;49.708;10.816;2022-09-03T15:25:09;23.00;99.90
9383;DHT22;4731;49.708;10.816;2022-09-03T15:27:50;23.10;99.90
9383;DHT22;4731;49.708;10.816;2022-09-03T15:30:19;22.90;99.90
9383;DHT22;4731;49.708;10.816;2022-09-03T15:32:59;22.80;99.90
9383;DHT22;4731;49.708;10.816;2022-09-03T15:35:38;22.70;99.90
9383;DHT22;4731;49.708;10.816;2022-09-03T15:38:19;22.60;99.90
9383;DHT22;4731;49.708;10.816;2022-09-03T15:40:50;22.60;99.90
9383;DHT22;4731;49.708;10.816;2022-09-03T15:43:24;22.70;99.90
9383;DHT22;4731;49.708;10.816;2022-09-03T15:45:53;22.70;99.90
9383;DHT22;4731;49.708;10.816;2022-09-03T15:48:29;23.50;99.90
9383;DHT22;4731;49.708;10.816;2022-09-03T15:51:07;22.50;99.90
9383;DHT22;4731;49.708;10.816;2022-09-03T15:53:41;22.60;99.90
9383;DHT22;4731;49.708;10.816;2022-09-03T15:56:17;22.60;99.90
9383;DHT22;4731;49.708;10.816;2022-09-03T15:58:51;22.60;99.90
9383;DHT22;4731;49.708;10.816;2022-09-03T16:01:25;22.60;99.90
9383;DHT22;4731;49.708;10.816;2022-09-03T16:04:01;22.60;99.90
9383;DHT22;4731;49.708;10.816;2022-09-03T16:06:43;22.50;99.90
9383;DHT22;4731;49.708;10.816;2022-09-03T16:09:26;22.10;99.90
9383;DHT22;4731;49.708;10.816;2022-09-03T16:12:01;21.50;99.90
9383;DHT22;4731;49.708;10.816;2022-09-03T16:14:34;20.30;99.90
9383;DHT22;4731;49.708;10.816;2022-09-03T16:17:08;20.00;99.90
9383;DHT22;4731;49.708;10.816;2022-09-03T16:19:42;20.50;99.90
9383;DHT22;4731;49.708;10.816;2022-09-03T16:22:15;19.90;99.90
9383;DHT22;4731;49.708;10.816;2022-09-03T16:24:49;19.80;99.90
9383;DHT22;4731;49.708;10.816;2022-09-03T16:27:21;19.70;99.90
9383;DHT22;4731;49.708;10.816;2022-09-03T16:30:01;19.60;99.90
9383;DHT22;4731;49.708;10.816;2022-09-03T16:32:38;19.00;99.90
9383;DHT22;4731;49.708;10.816;2022-09-03T16:35:16;18.80;99.90